createdAt,value
2023-01-09T00:00:22.162Z,84.83
2023-01-09T00:02:49.194Z,84.94
2023-01-09T00:05:17.162Z,84.89
2023-01-09T00:07:44.639Z,84.72
2023-01-09T00:10:12.054Z,85.39
2023-01-09T00:12:39.466Z,86.46
2023-01-09T00:15:06.811Z,85.33
2023-01-09T00:17:34.167Z,85.65
2023-01-09T00:20:01.217Z,85.35
2023-01-09T00:22:29.611Z,85.63
2023-01-09T00:24:56.563Z,85.33
2023-01-09T00:27:23.536Z,84.80
2023-01-09T00:29:50.532Z,85.35
2023-01-09T00:32:17.538Z,85.10
2023-01-09T00:34:44.707Z,84.91
2023-01-09T00:37:14.583Z,84.80
2023-01-09T00:39:42.368Z,84.20
2023-01-09T00:42:16.087Z,84.16
2023-01-09T00:44:57.282Z,83.89
2023-01-09T00:47:29.523Z,84.02
2023-01-09T00:49:59.255Z,84.39
2023-01-09T00:52:26.303Z,84.03
2023-01-09T00:54:53.579Z,83.64
2023-01-09T00:57:20.668Z,83.20
2023-01-09T00:59:49.204Z,84.32
2023-01-09T01:02:16.279Z,83.83
2023-01-09T01:05:01.948Z,83.47
2023-01-09T01:07:39.421Z,83.69
2023-01-09T01:10:08.003Z,84.21
2023-01-09T01:12:35.017Z,84.21
2023-01-09T01:15:01.976Z,83.93
2023-01-09T01:17:29.403Z,83.81
2023-01-09T01:19:56.708Z,84.21
2023-01-09T01:22:23.756Z,84.30
2023-01-09T01:24:50.781Z,84.46
2023-01-09T01:27:17.784Z,84.78
2023-01-09T01:29:44.694Z,85.00
2023-01-09T01:32:12.026Z,84.73
2023-01-09T01:34:39.088Z,84.61
2023-01-09T01:37:06.229Z,84.43
2023-01-09T01:39:36.459Z,83.89
2023-01-09T01:42:04.374Z,84.09
2023-01-09T01:44:50.094Z,83.65
2023-01-09T01:47:18.267Z,83.68
2023-01-09T01:49:45.596Z,83.70
2023-01-09T01:52:12.826Z,83.09
2023-01-09T01:54:40.006Z,83.80
2023-01-09T01:57:07.281Z,83.49
2023-01-09T01:59:38.553Z,83.35
2023-01-09T02:02:05.915Z,82.88
2023-01-09T02:04:34.379Z,83.14
2023-01-09T02:07:03.214Z,82.47
2023-01-09T02:09:33.050Z,82.73
2023-01-09T02:12:19.182Z,82.59
2023-01-09T02:14:47.972Z,83.30
2023-01-09T02:17:53.619Z,82.41
2023-01-09T02:20:41.713Z,82.82
2023-01-09T02:23:14.659Z,82.44
2023-01-09T02:26:10.507Z,81.91
2023-01-09T02:28:46.269Z,81.80
2023-01-09T02:31:22.500Z,82.02
2023-01-09T02:33:49.927Z,81.96
2023-01-09T02:36:32.097Z,81.19
2023-01-09T02:39:07.210Z,82.23
2023-01-09T02:41:43.140Z,81.71
2023-01-09T02:44:12.921Z,81.31
2023-01-09T02:46:39.987Z,80.49
2023-01-09T02:49:07.863Z,80.75
2023-01-09T02:51:39.862Z,80.44
2023-01-09T02:54:20.794Z,80.36
2023-01-09T02:56:50.430Z,80.25
2023-01-09T02:59:21.374Z,80.06
2023-01-09T03:02:03.492Z,81.39
2023-01-09T03:04:49.571Z,80.31
2023-01-09T03:07:23.367Z,81.07
2023-01-09T03:09:52.576Z,80.59
2023-01-09T03:12:22.395Z,80.14
2023-01-09T03:14:51.328Z,80.32
2023-01-09T03:17:35.737Z,80.33
2023-01-09T03:20:04.531Z,80.32
2023-01-09T03:22:31.493Z,80.17
2023-01-09T03:24:58.645Z,80.27
2023-01-09T03:27:25.675Z,81.00
2023-01-09T03:29:53.542Z,80.57
2023-01-09T03:32:20.563Z,80.39
2023-01-09T03:34:47.461Z,80.37
2023-01-09T03:37:14.606Z,80.47
2023-01-09T03:39:41.627Z,80.56
2023-01-09T03:42:08.585Z,80.56
2023-01-09T03:44:35.525Z,80.67
2023-01-09T03:47:02.509Z,80.09
2023-01-09T03:49:29.886Z,80.18
2023-01-09T03:51:56.862Z,81.09
2023-01-09T03:54:23.838Z,80.96
2023-01-09T03:56:51.178Z,81.10
2023-01-09T03:59:18.082Z,80.51
2023-01-09T04:01:45.802Z,81.16
2023-01-09T04:04:12.937Z,80.42
2023-01-09T04:06:39.956Z,80.81
2023-01-09T04:09:09.955Z,80.66
2023-01-09T04:11:36.881Z,80.90
2023-01-09T04:14:04.016Z,81.37
2023-01-09T04:16:31.149Z,81.17
2023-01-09T04:18:58.139Z,81.06
2023-01-09T04:21:25.252Z,80.22
2023-01-09T04:23:52.270Z,80.50
2023-01-09T04:26:19.365Z,80.29
2023-01-09T04:28:46.445Z,79.76
2023-01-09T04:31:13.557Z,80.17
2023-01-09T04:33:40.558Z,81.03
2023-01-09T04:36:07.797Z,81.05
2023-01-09T04:38:34.806Z,80.98
2023-01-09T04:41:01.834Z,80.66
2023-01-09T04:43:29.441Z,80.87
2023-01-09T04:45:56.941Z,80.17
2023-01-09T04:48:24.622Z,80.22
2023-01-09T04:50:51.772Z,80.51
2023-01-09T04:53:18.746Z,81.16
2023-01-09T04:55:45.951Z,80.95
2023-01-09T04:58:12.962Z,80.80
2023-01-09T05:00:40.047Z,80.66
2023-01-09T05:03:07.168Z,81.02
2023-01-09T05:05:34.192Z,80.31
2023-01-09T05:08:01.197Z,80.99
2023-01-09T05:10:28.553Z,80.42
2023-01-09T05:12:56.039Z,81.43
2023-01-09T05:15:23.151Z,81.32
2023-01-09T05:17:50.199Z,81.07
2023-01-09T05:20:17.250Z,80.37
2023-01-09T05:22:44.359Z,81.20
2023-01-09T05:25:11.305Z,80.41
2023-01-09T05:27:39.770Z,80.66
2023-01-09T05:30:07.014Z,80.87
2023-01-09T05:32:38.477Z,80.90
2023-01-09T05:35:06.108Z,80.89
2023-01-09T05:37:33.323Z,80.47
2023-01-09T05:40:00.490Z,81.32
2023-01-09T05:42:27.601Z,81.66
2023-01-09T05:44:54.620Z,81.13
2023-01-09T05:47:21.591Z,81.21
2023-01-09T05:49:48.639Z,81.91
2023-01-09T05:52:15.996Z,81.46
2023-01-09T05:54:43.172Z,81.98
2023-01-09T05:57:10.141Z,81.38
2023-01-09T05:59:37.171Z,82.09
2023-01-09T06:02:04.178Z,81.63
2023-01-09T06:04:31.287Z,81.05
2023-01-09T06:06:58.441Z,81.87
2023-01-09T06:09:26.142Z,81.40
2023-01-09T06:11:55.073Z,81.70
2023-01-09T06:14:22.494Z,82.15
2023-01-09T06:16:49.753Z,81.60
2023-01-09T06:19:16.786Z,81.86
2023-01-09T06:21:44.024Z,82.13
2023-01-09T06:24:11.076Z,82.07
2023-01-09T06:26:38.010Z,81.55
2023-01-09T06:29:05.369Z,81.43
2023-01-09T06:31:32.489Z,81.44
2023-01-09T06:34:00.039Z,81.19
2023-01-09T06:36:27.028Z,80.97
2023-01-09T06:38:53.947Z,80.56
2023-01-09T06:41:21.479Z,80.81
2023-01-09T06:43:48.522Z,80.83
2023-01-09T06:46:15.521Z,80.96
2023-01-09T06:48:42.491Z,81.45
2023-01-09T06:51:09.419Z,81.46
2023-01-09T06:53:36.499Z,80.69
2023-01-09T06:56:03.836Z,80.93
2023-01-09T06:58:32.452Z,81.39
2023-01-09T07:01:01.903Z,81.52
2023-01-09T07:03:29.002Z,81.31
2023-01-09T07:05:56.116Z,81.13
2023-01-09T07:08:23.213Z,81.00
2023-01-09T07:10:50.096Z,80.67
2023-01-09T07:13:17.206Z,80.86
2023-01-09T07:15:44.373Z,79.75
2023-01-09T07:18:11.503Z,80.06
2023-01-09T07:20:39.920Z,79.68
2023-01-09T07:23:06.867Z,79.82
2023-01-09T07:25:33.879Z,79.77
2023-01-09T07:28:01.143Z,79.54
2023-01-09T07:30:28.242Z,79.23
2023-01-09T07:32:55.146Z,78.79
2023-01-09T07:35:22.034Z,78.66
2023-01-09T07:37:49.262Z,78.36
2023-01-09T07:40:16.236Z,77.96
2023-01-09T07:42:43.243Z,77.84
2023-01-09T07:45:10.430Z,77.75
2023-01-09T07:47:37.391Z,77.67
2023-01-09T07:50:04.540Z,77.46
2023-01-09T07:52:31.600Z,76.79
2023-01-09T07:54:59.104Z,76.86
2023-01-09T07:57:26.210Z,76.70
2023-01-09T07:59:53.423Z,77.19
2023-01-09T08:02:20.614Z,76.96
2023-01-09T08:04:48.777Z,76.29
2023-01-09T08:09:57.559Z,76.70
2023-01-09T08:12:27.249Z,77.05
2023-01-09T08:14:56.631Z,76.94
2023-01-09T08:17:33.057Z,76.54
2023-01-09T08:20:02.305Z,76.64
2023-01-09T08:22:32.463Z,76.49
2023-01-09T08:24:59.513Z,76.90
2023-01-09T08:27:37.146Z,76.71
2023-01-09T08:30:06.208Z,76.23
2023-01-09T08:32:34.348Z,75.97
2023-01-09T08:35:02.822Z,76.19
2023-01-09T08:37:30.473Z,75.91
2023-01-09T08:39:57.972Z,76.15
2023-01-09T08:42:44.352Z,76.68
2023-01-09T08:45:40.763Z,77.07
2023-01-09T08:48:13.307Z,76.64
2023-01-09T08:53:22.546Z,75.64
2023-01-09T09:01:30.511Z,75.27
2023-01-09T09:03:58.100Z,75.87
2023-01-09T09:20:14.835Z,75.99
2023-01-09T09:22:43.206Z,75.70
2023-01-09T09:25:17.595Z,75.94
2023-01-09T09:27:48.361Z,75.32
2023-01-09T09:30:17.851Z,75.22
2023-01-09T09:32:55.496Z,74.91
2023-01-09T09:35:22.840Z,75.17
2023-01-09T09:44:16.932Z,75.74
2023-01-09T09:49:42.366Z,76.14
2023-01-09T09:52:32.025Z,75.96
2023-01-09T09:55:05.536Z,76.42
2023-01-09T09:57:46.652Z,75.72
2023-01-09T10:00:26.699Z,76.50
2023-01-09T10:05:41.471Z,75.52
2023-01-09T10:11:21.516Z,76.66
2023-01-09T10:22:45.727Z,75.72
2023-01-09T10:34:07.992Z,75.51
2023-01-09T10:39:24.512Z,75.46
2023-01-09T10:44:44.348Z,75.67
2023-01-09T10:52:44.872Z,75.32
2023-01-09T10:58:24.837Z,76.40
2023-01-09T11:03:35.574Z,75.86
2023-01-09T11:20:15.373Z,76.28
2023-01-09T11:25:28.350Z,76.34
2023-01-09T11:28:01.476Z,76.48
2023-01-09T11:30:30.681Z,76.70
2023-01-09T11:32:58.157Z,76.85
2023-01-09T11:35:27.638Z,76.90
2023-01-09T11:38:00.958Z,77.44
2023-01-09T11:40:30.087Z,76.71
2023-01-09T11:43:35.793Z,77.21
2023-01-09T11:46:04.197Z,76.59
2023-01-09T11:48:33.108Z,77.11
2023-01-09T11:51:01.834Z,77.28
2023-01-09T11:53:29.252Z,77.03
2023-01-09T11:55:58.092Z,77.38
2023-01-09T11:58:25.150Z,78.19
2023-01-09T12:00:55.480Z,78.44
2023-01-09T12:03:30.505Z,77.66
2023-01-09T12:06:09.539Z,77.95
2023-01-09T12:08:37.254Z,78.28
2023-01-09T12:11:04.759Z,78.60
2023-01-09T12:13:50.679Z,78.42
2023-01-09T12:16:18.298Z,78.61
2023-01-09T12:18:45.433Z,78.46
2023-01-09T12:21:22.013Z,78.24
2023-01-09T12:24:02.105Z,78.54
2023-01-09T12:26:34.734Z,78.68
2023-01-09T12:29:23.440Z,78.59
2023-01-09T12:32:10.897Z,78.58
2023-01-09T12:34:57.559Z,77.92
2023-01-09T12:37:44.169Z,78.49
2023-01-09T12:40:12.006Z,78.61
2023-01-09T12:42:49.668Z,78.80
2023-01-09T12:45:16.910Z,79.14
2023-01-09T12:47:49.616Z,79.88
2023-01-09T12:50:28.955Z,80.22
2023-01-09T12:52:56.150Z,81.27
2023-01-09T12:55:26.520Z,81.52
2023-01-09T12:58:06.150Z,81.71
2023-01-09T13:00:42.437Z,82.31
2023-01-09T13:03:32.824Z,81.58
2023-01-09T13:06:01.776Z,81.36
2023-01-09T13:08:36.044Z,82.20
2023-01-09T13:11:19.434Z,82.27
2023-01-09T13:16:33.535Z,82.17
2023-01-09T13:19:12.784Z,81.77
2023-01-09T13:21:45.343Z,81.84
2023-01-09T13:24:18.890Z,81.79
2023-01-09T13:26:48.143Z,82.34
2023-01-09T13:29:20.616Z,81.81
2023-01-09T13:34:58.912Z,82.51
2023-01-09T13:37:25.983Z,82.15
2023-01-09T13:40:17.210Z,82.41
2023-01-09T13:42:47.498Z,81.94
2023-01-09T13:48:20.512Z,82.50
2023-01-09T13:50:48.249Z,82.03
2023-01-09T13:53:21.522Z,82.36
2023-01-09T13:55:58.800Z,82.58
2023-01-09T13:58:27.611Z,82.54
2023-01-09T14:00:56.915Z,82.15
2023-01-09T14:03:27.663Z,82.50
2023-01-09T14:05:54.664Z,82.26
2023-01-09T14:08:23.176Z,82.76
2023-01-09T14:10:57.318Z,82.75
2023-01-09T14:13:25.590Z,82.28
2023-01-09T14:18:50.455Z,82.41
2023-01-09T14:21:17.924Z,82.73
2023-01-09T14:24:07.152Z,82.37
2023-01-09T14:26:46.104Z,82.88
2023-01-09T14:29:32.634Z,82.08
2023-01-09T14:32:19.428Z,81.73
2023-01-09T14:34:48.620Z,82.35
2023-01-09T14:37:16.229Z,81.87
2023-01-09T14:39:47.697Z,82.42
2023-01-09T14:42:27.534Z,81.99
2023-01-09T14:48:08.407Z,81.89
2023-01-09T14:50:55.496Z,82.58
2023-01-09T14:56:27.306Z,82.34
2023-01-09T14:59:06.589Z,82.45
2023-01-09T15:01:35.996Z,81.95
2023-01-09T15:04:12.202Z,81.90
2023-01-09T15:06:43.704Z,81.93
2023-01-09T15:09:20.868Z,82.30
2023-01-09T15:11:48.812Z,82.07
2023-01-09T15:14:31.765Z,82.32
2023-01-09T15:16:59.706Z,82.18
2023-01-09T15:19:27.331Z,82.25
2023-01-09T15:21:59.188Z,82.10
2023-01-09T15:24:31.753Z,81.78
2023-01-09T15:27:01.653Z,82.50
2023-01-09T15:29:28.977Z,82.06
2023-01-09T15:32:01.485Z,82.57
2023-01-09T15:34:29.324Z,82.99
2023-01-09T15:36:56.474Z,83.29
2023-01-09T15:39:26.572Z,82.45
2023-01-09T15:42:16.307Z,81.86
2023-01-09T15:44:45.168Z,82.72
2023-01-09T15:47:15.801Z,82.24
2023-01-09T15:49:43.279Z,82.36
2023-01-09T15:52:13.491Z,82.58
2023-01-09T15:54:43.139Z,82.79
2023-01-09T15:57:34.551Z,83.68
2023-01-09T16:00:28.776Z,83.40
2023-01-09T16:03:11.415Z,82.81
2023-01-09T16:05:43.141Z,82.53
2023-01-09T16:08:21.380Z,83.16
2023-01-09T16:10:52.918Z,83.25
2023-01-09T16:13:21.604Z,83.15
2023-01-09T16:15:49.237Z,83.11
2023-01-09T16:18:20.097Z,83.11
2023-01-09T16:20:47.823Z,82.70
2023-01-09T16:23:22.585Z,82.12
2023-01-09T16:25:49.692Z,82.15
2023-01-09T16:28:22.498Z,82.00
2023-01-09T16:30:53.027Z,81.82
2023-01-09T16:36:06.416Z,82.17
2023-01-09T16:38:34.368Z,81.79
2023-01-09T16:41:24.840Z,82.67
2023-01-09T16:43:52.736Z,81.54
2023-01-09T16:46:21.241Z,81.76
2023-01-09T16:48:48.990Z,81.60
2023-01-09T16:51:25.935Z,82.22
2023-01-09T16:53:53.307Z,81.79
2023-01-09T16:56:28.212Z,82.17
2023-01-09T16:58:55.363Z,82.37
2023-01-09T17:01:23.443Z,82.27
2023-01-09T17:03:51.127Z,82.53
2023-01-09T17:06:21.246Z,83.20
2023-01-09T17:08:48.276Z,82.44
2023-01-09T17:11:20.270Z,82.65
2023-01-09T17:13:48.108Z,81.74
2023-01-09T17:16:15.936Z,82.26
2023-01-09T17:18:43.386Z,82.66
2023-01-09T17:21:14.979Z,82.59
2023-01-09T17:23:41.898Z,82.14
2023-01-09T17:26:33.765Z,83.10
2023-01-09T17:29:01.009Z,81.96
2023-01-09T17:31:31.557Z,82.91
2023-01-09T17:33:59.459Z,82.70
2023-01-09T17:36:32.482Z,83.24
2023-01-09T17:39:01.445Z,82.78
2023-01-09T17:41:29.521Z,82.99
2023-01-09T17:43:57.835Z,82.50
2023-01-09T17:46:27.928Z,82.64
2023-01-09T17:48:55.524Z,82.17
2023-01-09T17:51:26.675Z,81.98
2023-01-09T17:53:53.913Z,82.55
2023-01-09T17:56:28.073Z,81.83
2023-01-09T17:58:55.232Z,82.01
2023-01-09T18:01:22.428Z,81.87
2023-01-09T18:03:50.861Z,83.21
2023-01-09T18:06:19.369Z,82.65
2023-01-09T18:08:46.686Z,82.42
2023-01-09T18:11:15.039Z,81.55
2023-01-09T18:13:42.295Z,81.79
2023-01-09T18:16:13.459Z,82.46
2023-01-09T18:18:41.234Z,82.32
2023-01-09T18:21:09.130Z,81.55
2023-01-09T18:23:36.350Z,81.62
2023-01-09T18:26:07.191Z,81.08
2023-01-09T18:28:38.163Z,81.26
2023-01-09T18:31:06.765Z,81.82
2023-01-09T18:33:33.902Z,81.55
2023-01-09T18:36:10.660Z,82.24
2023-01-09T18:38:38.208Z,81.44
2023-01-09T18:41:05.672Z,81.96
2023-01-09T18:43:32.829Z,82.54
2023-01-09T18:45:59.852Z,81.81
2023-01-09T18:48:27.009Z,82.22
2023-01-09T18:51:01.956Z,82.04
2023-01-09T18:53:29.082Z,81.82
2023-01-09T18:55:56.288Z,81.66
2023-01-09T18:58:23.419Z,82.56
2023-01-09T19:00:51.690Z,81.92
2023-01-09T19:03:18.727Z,82.86
2023-01-09T19:05:45.821Z,82.68
2023-01-09T19:08:13.584Z,82.03
2023-01-09T19:10:40.522Z,82.96
2023-01-09T19:13:07.396Z,82.20
2023-01-09T19:15:34.992Z,82.93
2023-01-09T19:18:02.029Z,82.71
2023-01-09T19:20:29.926Z,82.42
2023-01-09T19:22:57.125Z,82.13
2023-01-09T19:25:24.197Z,82.00
2023-01-09T19:27:53.637Z,82.00
2023-01-09T19:30:20.732Z,81.91
2023-01-09T19:32:48.047Z,82.38
2023-01-09T19:35:15.206Z,82.25
2023-01-09T19:37:42.151Z,82.02
2023-01-09T19:40:09.678Z,82.61
2023-01-09T19:42:36.904Z,82.18
2023-01-09T19:45:05.082Z,82.33
2023-01-09T19:47:38.271Z,82.48
2023-01-09T19:50:05.979Z,82.24
2023-01-09T19:52:32.932Z,82.40
2023-01-09T19:55:00.016Z,83.10
2023-01-09T19:57:27.036Z,82.21
2023-01-09T19:59:54.101Z,82.16
2023-01-09T20:04:53.000Z,81.63
2023-01-09T20:07:21.558Z,81.52
2023-01-09T20:09:49.572Z,82.29
2023-01-09T20:12:16.480Z,82.63
2023-01-09T20:14:45.266Z,82.13
2023-01-09T20:17:12.250Z,82.05
2023-01-09T20:19:39.629Z,82.72
2023-01-09T20:22:06.569Z,82.30
2023-01-09T20:24:33.549Z,81.71
2023-01-09T20:27:00.820Z,81.71
2023-01-09T20:29:29.177Z,82.07
2023-01-09T20:31:56.384Z,82.40
2023-01-09T20:34:23.311Z,81.73
2023-01-09T20:36:50.396Z,82.43
2023-01-09T20:39:17.507Z,82.08
2023-01-09T20:41:44.591Z,81.59
2023-01-09T20:44:12.644Z,83.25
2023-01-09T20:46:40.957Z,82.12
2023-01-09T20:49:09.901Z,81.84
2023-01-09T20:51:37.523Z,81.06
2023-01-09T20:54:04.551Z,81.66
2023-01-09T20:56:32.033Z,82.01
2023-01-09T20:59:00.229Z,81.13
2023-01-09T21:01:28.134Z,81.98
2023-01-09T21:03:56.232Z,81.51
2023-01-09T21:06:24.071Z,81.35
2023-01-09T21:08:52.375Z,81.46
2023-01-09T21:11:20.374Z,80.87
2023-01-09T21:13:47.323Z,81.65
2023-01-09T21:16:15.735Z,81.36
2023-01-09T21:18:43.501Z,82.18
2023-01-09T21:21:14.242Z,81.81
2023-01-09T21:23:48.331Z,82.17
2023-01-09T21:26:15.863Z,82.06
2023-01-09T21:28:48.283Z,81.05
2023-01-09T21:31:16.548Z,81.69
2023-01-09T21:33:43.467Z,82.03
2023-01-09T21:36:11.004Z,81.63
2023-01-09T21:38:38.198Z,82.33
2023-01-09T21:41:23.781Z,81.53
2023-01-09T21:44:09.261Z,81.66
2023-01-09T21:46:57.885Z,81.25
2023-01-09T21:49:26.062Z,82.38
2023-01-09T21:51:54.133Z,81.41
2023-01-09T21:54:23.314Z,81.14
2023-01-09T21:56:50.958Z,81.15
2023-01-09T21:59:18.125Z,81.62
2023-01-09T22:01:45.172Z,80.68
2023-01-09T22:04:14.208Z,81.21
2023-01-09T22:06:41.145Z,81.73
2023-01-09T22:09:08.077Z,81.03
2023-01-09T22:11:35.134Z,81.15
2023-01-09T22:14:02.190Z,81.04
2023-01-09T22:16:29.297Z,81.44
2023-01-09T22:18:56.706Z,80.69
2023-01-09T22:21:24.431Z,80.41
2023-01-09T22:23:51.837Z,80.79
2023-01-09T22:26:19.102Z,80.82
2023-01-09T22:28:46.631Z,80.65
2023-01-09T22:31:18.001Z,80.84
2023-01-09T22:33:49.128Z,80.84
2023-01-09T22:36:16.121Z,80.65
2023-01-09T22:38:44.049Z,81.09
2023-01-09T22:41:11.473Z,81.03
2023-01-09T22:43:38.399Z,80.37
2023-01-09T22:46:06.700Z,80.43
2023-01-09T22:48:34.730Z,80.55
2023-01-09T22:51:02.280Z,80.64
2023-01-09T22:53:29.861Z,81.01
2023-01-09T22:56:00.521Z,82.19
2023-01-09T22:58:28.665Z,80.62
2023-01-09T23:00:55.577Z,81.63
2023-01-09T23:03:22.959Z,80.79
2023-01-09T23:05:50.040Z,81.26
2023-01-09T23:08:17.365Z,80.94
2023-01-09T23:10:44.782Z,81.19
2023-01-09T23:13:11.775Z,81.86
2023-01-09T23:15:38.778Z,81.10
2023-01-09T23:18:07.955Z,80.48
2023-01-09T23:20:34.993Z,81.22
2023-01-09T23:23:02.017Z,80.71
2023-01-09T23:25:28.973Z,81.84
2023-01-09T23:27:55.913Z,81.32
2023-01-09T23:30:23.080Z,81.21
2023-01-09T23:32:50.083Z,81.30
2023-01-09T23:35:17.063Z,80.86
2023-01-09T23:37:44.068Z,81.58
2023-01-09T23:40:11.664Z,80.36
2023-01-09T23:42:58.204Z,81.86
2023-01-09T23:45:25.245Z,81.12
2023-01-09T23:47:52.130Z,81.60
2023-01-09T23:50:19.094Z,80.63
2023-01-09T23:52:46.031Z,81.63
2023-01-09T23:55:13.089Z,80.84
2023-01-09T23:57:40.077Z,81.88
